createdAt,value
2022-08-12T00:00:16.173Z,11.82
2022-08-12T00:03:06.551Z,14.73
2022-08-12T00:06:04.815Z,13.55
2022-08-12T00:08:53.440Z,19.27
2022-08-12T00:11:49.780Z,12.25
2022-08-12T00:14:37.386Z,13.23
2022-08-12T00:17:24.162Z,14.00
2022-08-12T00:20:11.497Z,16.95
2022-08-12T00:23:01.085Z,17.13
2022-08-12T00:26:22.374Z,13.90
2022-08-12T00:29:13.720Z,13.68
2022-08-12T00:32:01.788Z,14.95
2022-08-12T00:34:49.682Z,10.70
2022-08-12T00:37:41.913Z,12.65
2022-08-12T00:40:34.847Z,12.85
2022-08-12T00:43:05.135Z,12.07
2022-08-12T00:45:52.954Z,16.92
2022-08-12T00:48:20.861Z,16.50
2022-08-12T00:50:54.713Z,15.10
2022-08-12T00:53:23.324Z,15.00
2022-08-12T00:55:55.703Z,17.05
2022-08-12T00:58:26.833Z,12.18
2022-08-12T01:01:04.483Z,13.32
2022-08-12T01:04:10.508Z,15.52
2022-08-12T01:06:58.597Z,13.85
2022-08-12T01:09:45.141Z,12.77
2022-08-12T01:12:13.458Z,18.13
2022-08-12T01:14:44.979Z,14.93
2022-08-12T01:17:13.491Z,15.25
2022-08-12T01:19:52.331Z,14.50
2022-08-12T01:22:29.558Z,17.33
2022-08-12T01:25:07.054Z,14.77
2022-08-12T01:27:40.057Z,16.10
2022-08-12T01:30:12.516Z,13.15
2022-08-12T01:32:41.949Z,12.05
2022-08-12T01:35:15.380Z,14.07
2022-08-12T01:38:06.073Z,13.80
2022-08-12T01:40:42.516Z,11.02
2022-08-12T01:43:21.812Z,15.40
2022-08-12T01:46:26.964Z,15.88
2022-08-12T01:49:48.350Z,13.10
2022-08-12T01:52:47.100Z,11.07
2022-08-12T01:55:20.928Z,15.20
2022-08-12T01:58:01.408Z,10.35
2022-08-12T02:04:07.990Z,14.20
2022-08-12T02:07:21.578Z,11.95
2022-08-12T02:10:51.030Z,13.25
2022-08-12T02:13:48.356Z,13.98
2022-08-12T02:16:47.102Z,13.55
2022-08-12T02:19:34.607Z,14.40
2022-08-12T02:22:23.800Z,12.60
2022-08-12T02:25:05.955Z,14.80
2022-08-12T02:27:46.754Z,12.52
2022-08-12T02:30:20.527Z,15.48
2022-08-12T02:32:50.534Z,14.60
2022-08-12T02:35:21.010Z,14.25
2022-08-12T02:37:54.737Z,13.50
2022-08-12T02:40:24.056Z,11.43
2022-08-12T02:43:19.807Z,11.10
2022-08-12T02:45:56.898Z,15.43
2022-08-12T02:48:30.268Z,14.05
2022-08-12T02:51:09.821Z,16.75
2022-08-12T02:53:39.290Z,13.18
2022-08-12T02:56:07.624Z,15.50
2022-08-12T02:58:36.774Z,14.40
2022-08-12T03:01:10.490Z,15.32
2022-08-12T03:03:51.173Z,16.35
2022-08-12T03:06:27.374Z,13.70
2022-08-12T03:08:58.646Z,13.98
2022-08-12T03:11:48.646Z,14.57
2022-08-12T03:14:18.735Z,16.45
2022-08-12T03:16:55.693Z,11.43
2022-08-12T03:19:24.829Z,17.20
2022-08-12T03:22:08.881Z,13.55
2022-08-12T03:24:43.221Z,10.27
2022-08-12T03:27:15.281Z,14.25
2022-08-12T03:29:51.518Z,12.38
2022-08-12T03:32:36.085Z,14.43
2022-08-12T03:35:08.017Z,14.40
2022-08-12T03:37:38.293Z,15.27
2022-08-12T03:40:10.328Z,15.63
2022-08-12T03:43:04.678Z,11.82
2022-08-12T03:45:52.942Z,15.20
2022-08-12T03:48:39.848Z,13.82
2022-08-12T03:51:27.876Z,17.67
2022-08-12T03:54:15.086Z,13.77
2022-08-12T03:57:02.207Z,16.98
2022-08-12T03:59:48.649Z,11.98
2022-08-12T04:02:17.059Z,15.52
2022-08-12T04:04:46.601Z,14.45
2022-08-12T04:07:18.445Z,13.37
2022-08-12T04:09:47.109Z,13.70
2022-08-12T04:12:33.733Z,15.20
2022-08-12T04:15:02.319Z,13.07
2022-08-12T04:17:34.881Z,14.70
2022-08-12T04:20:04.114Z,18.15
2022-08-12T04:22:34.078Z,14.45
2022-08-12T04:25:02.848Z,13.77
2022-08-12T04:27:35.733Z,13.07
2022-08-12T04:30:29.338Z,12.27
2022-08-12T04:32:56.476Z,14.48
2022-08-12T04:35:24.166Z,13.63
2022-08-12T04:38:00.996Z,17.05
2022-08-12T04:40:31.611Z,13.52
2022-08-12T04:43:01.730Z,15.13
2022-08-12T04:45:31.737Z,15.10
2022-08-12T04:48:06.446Z,14.05
2022-08-12T04:50:40.954Z,11.50
2022-08-12T04:53:10.902Z,14.30
2022-08-12T04:55:39.589Z,15.20
2022-08-12T04:58:11.682Z,12.60
2022-08-12T05:00:42.594Z,18.45
2022-08-12T05:03:10.282Z,15.45
2022-08-12T05:05:40.843Z,13.50
2022-08-12T05:08:20.406Z,14.23
2022-08-12T05:10:49.393Z,15.07
2022-08-12T05:13:21.513Z,14.63
2022-08-12T05:16:04.176Z,14.18
2022-08-12T05:18:45.749Z,17.38
2022-08-12T05:21:13.849Z,17.40
2022-08-12T05:23:42.938Z,14.23
2022-08-12T05:26:10.815Z,16.23
2022-08-12T05:28:41.434Z,15.52
2022-08-12T05:33:40.392Z,12.88
2022-08-12T05:36:17.589Z,15.65
2022-08-12T05:38:56.571Z,14.93
2022-08-12T05:41:29.859Z,15.80
2022-08-12T05:44:02.882Z,14.77
2022-08-12T05:46:31.802Z,15.63
2022-08-12T05:49:03.296Z,14.20
2022-08-12T05:51:41.314Z,19.23
2022-08-12T05:54:11.295Z,13.32
2022-08-12T05:56:40.828Z,16.45
2022-08-12T05:59:12.244Z,17.27
2022-08-12T06:02:08.926Z,20.63
2022-08-12T06:04:31.465Z,15.23
2022-08-12T06:06:59.485Z,14.23
2022-08-12T06:09:30.407Z,11.32
2022-08-12T06:12:04.590Z,13.05
2022-08-12T06:14:39.138Z,11.70
2022-08-12T06:17:10.161Z,13.90
2022-08-12T06:20:26.907Z,12.35
2022-08-12T06:22:32.612Z,15.63
2022-08-12T06:25:01.303Z,14.32
2022-08-12T06:27:29.214Z,16.30
2022-08-12T06:30:09.490Z,17.98
2022-08-12T06:32:51.663Z,14.90
2022-08-12T06:35:48.100Z,16.48
2022-08-12T06:38:20.936Z,12.52
2022-08-12T06:41:10.961Z,13.95
2022-08-12T06:44:06.016Z,14.23
2022-08-12T06:46:29.382Z,12.88
2022-08-12T06:48:59.446Z,13.25
2022-08-12T06:51:30.388Z,11.93
2022-08-12T06:53:59.755Z,14.60
2022-08-12T06:56:59.805Z,17.13
2022-08-12T06:59:15.909Z,12.55
2022-08-12T07:01:50.650Z,15.95
2022-08-12T07:04:37.485Z,13.00
2022-08-12T07:07:09.694Z,17.27
2022-08-12T07:10:02.840Z,13.23
2022-08-12T07:12:29.258Z,17.92
2022-08-12T07:15:02.015Z,12.88
2022-08-12T07:17:37.964Z,15.60
2022-08-12T07:20:29.721Z,14.05
2022-08-12T07:23:01.472Z,12.35
2022-08-12T07:25:40.622Z,12.95
2022-08-12T07:28:23.642Z,13.57
2022-08-12T07:30:53.415Z,16.97
2022-08-12T07:33:23.854Z,17.90
2022-08-12T07:35:54.267Z,12.88
2022-08-12T07:38:29.836Z,15.38
2022-08-12T07:41:15.671Z,15.43
2022-08-12T07:43:52.457Z,14.13
2022-08-12T07:46:26.089Z,13.70
2022-08-12T07:49:02.265Z,11.48
2022-08-12T07:51:30.152Z,13.68
2022-08-12T07:54:04.952Z,18.33
2022-08-12T07:56:32.847Z,16.95
2022-08-12T07:59:03.335Z,14.25
2022-08-12T08:01:34.130Z,16.20
2022-08-12T08:04:23.322Z,19.38
2022-08-12T08:06:54.958Z,22.80
2022-08-12T08:09:24.415Z,16.55
2022-08-12T08:12:18.939Z,16.60
2022-08-12T08:14:53.265Z,15.98
2022-08-12T08:17:21.077Z,12.57
2022-08-12T08:20:02.762Z,20.05
2022-08-12T08:22:50.159Z,20.20
2022-08-12T08:25:35.581Z,18.40
2022-08-12T08:28:16.436Z,18.95
2022-08-12T08:30:49.589Z,14.20
2022-08-12T08:33:23.770Z,15.27
2022-08-12T08:36:16.176Z,17.02
2022-08-12T08:38:55.019Z,14.80
2022-08-12T08:42:16.870Z,14.25
2022-08-12T08:44:38.354Z,9.70
2022-08-12T08:47:07.942Z,22.10
2022-08-12T08:49:37.641Z,13.80
2022-08-12T08:52:06.910Z,15.80
2022-08-12T08:54:34.893Z,17.38
2022-08-12T08:57:05.618Z,14.23
2022-08-12T08:59:33.377Z,15.57
2022-08-12T09:02:02.695Z,9.95
2022-08-12T09:05:13.511Z,16.08
2022-08-12T09:07:51.349Z,13.27
2022-08-12T09:13:29.371Z,11.23
2022-08-12T09:16:12.453Z,9.57
2022-08-12T09:18:41.237Z,11.57
2022-08-12T09:21:14.004Z,15.07
2022-08-12T09:24:00.077Z,13.27
2022-08-12T09:26:38.083Z,10.63
2022-08-12T09:30:10.345Z,9.77
2022-08-12T09:32:29.607Z,18.80
2022-08-12T09:34:57.703Z,9.75
2022-08-12T09:37:57.725Z,10.90
2022-08-12T09:40:57.696Z,13.80
2022-08-12T09:43:29.162Z,10.93
2022-08-12T09:46:06.942Z,8.98
2022-08-12T09:48:56.712Z,11.65
2022-08-12T09:51:37.565Z,14.63
2022-08-12T09:54:32.703Z,12.15
2022-08-12T09:58:45.629Z,10.23
2022-08-12T10:00:14.016Z,15.07
2022-08-12T10:03:32.022Z,8.13
2022-08-12T10:06:26.194Z,15.25
2022-08-12T10:08:52.557Z,11.25
2022-08-12T10:12:10.221Z,14.75
2022-08-12T10:14:36.271Z,12.10
2022-08-12T10:17:08.819Z,13.00
2022-08-12T10:19:37.975Z,16.80
2022-08-12T10:22:16.581Z,7.60
2022-08-12T10:25:17.281Z,12.30
2022-08-12T10:28:09.795Z,8.05
2022-08-12T10:30:58.416Z,9.05
2022-08-12T10:33:31.629Z,10.63
2022-08-12T10:36:02.076Z,9.98
2022-08-12T10:38:37.479Z,12.18
2022-08-12T10:41:58.100Z,8.93
2022-08-12T10:44:17.223Z,9.77
2022-08-12T10:46:52.884Z,12.60
2022-08-12T10:50:04.542Z,8.60
2022-08-12T10:52:33.254Z,13.27
2022-08-12T10:55:13.174Z,12.25
2022-08-12T10:58:15.665Z,12.80
2022-08-12T11:00:55.446Z,15.00
2022-08-12T11:04:24.948Z,12.93
2022-08-12T11:07:05.823Z,9.57
2022-08-12T11:09:00.686Z,12.02
2022-08-12T11:12:34.901Z,11.80
2022-08-12T11:14:50.567Z,9.43
2022-08-12T11:17:44.144Z,15.25
2022-08-12T11:20:01.924Z,13.27
2022-08-12T11:22:33.269Z,6.22
2022-08-12T11:25:10.183Z,7.25
2022-08-12T11:27:38.855Z,8.25
2022-08-12T11:30:31.605Z,12.32
2022-08-12T11:32:57.616Z,11.18
2022-08-12T11:35:29.623Z,7.65
2022-08-12T11:38:00.205Z,13.07
2022-08-12T11:40:30.307Z,9.70
2022-08-12T11:43:11.902Z,8.77
2022-08-12T11:45:52.867Z,7.97
2022-08-12T11:48:21.235Z,8.45
2022-08-12T11:50:59.987Z,8.63
2022-08-12T11:53:59.400Z,6.18
2022-08-12T11:56:18.823Z,8.63
2022-08-12T12:01:59.002Z,8.40
2022-08-12T12:02:01.209Z,10.90
2022-08-12T12:04:25.876Z,9.00
2022-08-12T12:07:07.388Z,9.27
2022-08-12T12:09:50.742Z,4.68
2022-08-12T12:12:25.009Z,4.05
2022-08-12T12:14:54.113Z,6.82
2022-08-12T12:17:26.629Z,7.00
2022-08-12T12:20:11.598Z,7.72
2022-08-12T12:22:43.572Z,8.57
2022-08-12T12:25:14.020Z,3.35
2022-08-12T12:28:04.775Z,6.75
2022-08-12T12:30:37.855Z,3.70
2022-08-12T12:33:09.462Z,8.30
2022-08-12T12:36:16.412Z,7.05
2022-08-12T12:38:36.439Z,4.73
2022-08-12T12:41:16.617Z,8.07
2022-08-12T12:43:50.253Z,7.90
2022-08-12T12:46:32.985Z,8.10
2022-08-12T12:49:11.193Z,7.45
2022-08-12T12:51:49.371Z,8.38
2022-08-12T12:54:30.945Z,7.60
2022-08-12T12:56:59.853Z,7.63
2022-08-12T12:59:54.488Z,6.30
2022-08-12T13:02:31.689Z,8.40
2022-08-12T13:05:00.186Z,7.50
2022-08-12T13:07:54.219Z,8.60
2022-08-12T13:10:25.478Z,5.30
2022-08-12T13:14:10.466Z,9.38
2022-08-12T13:15:50.929Z,5.50
2022-08-12T13:18:20.041Z,8.50
2022-08-12T13:20:59.602Z,6.65
2022-08-12T13:23:36.084Z,7.75
2022-08-12T13:26:14.631Z,6.13
2022-08-12T13:28:45.673Z,17.85
2022-08-12T13:31:25.237Z,5.90
2022-08-12T13:34:32.554Z,7.63
2022-08-12T13:36:49.517Z,7.22
2022-08-12T13:39:23.291Z,7.63
2022-08-12T13:41:53.964Z,7.72
2022-08-12T13:44:23.303Z,5.35
2022-08-12T13:46:58.402Z,5.38
2022-08-12T13:49:54.579Z,10.35
2022-08-12T13:52:23.391Z,6.38
2022-08-12T13:54:56.522Z,4.88
2022-08-12T13:57:44.620Z,10.20
2022-08-12T14:00:16.063Z,8.68
2022-08-12T14:02:47.954Z,6.97
2022-08-12T14:05:37.850Z,8.70
2022-08-12T14:08:11.350Z,7.70
2022-08-12T14:10:59.148Z,9.20
2022-08-12T14:14:04.301Z,4.68
2022-08-12T14:16:46.929Z,4.40
2022-08-12T14:19:25.559Z,7.45
2022-08-12T14:21:59.847Z,9.10
2022-08-12T14:24:40.296Z,11.20
2022-08-12T14:27:11.057Z,6.97
2022-08-12T14:30:04.512Z,5.43
2022-08-12T14:32:37.362Z,7.30
2022-08-12T14:35:11.332Z,5.20
2022-08-12T14:37:55.867Z,9.40
2022-08-12T14:40:32.461Z,7.68
2022-08-12T14:43:00.339Z,7.45
2022-08-12T14:45:45.091Z,8.95
2022-08-12T14:48:24.709Z,6.85
2022-08-12T14:52:16.204Z,7.75
2022-08-12T14:54:49.889Z,4.00
2022-08-12T14:56:58.936Z,5.35
2022-08-12T14:59:58.255Z,10.93
2022-08-12T15:02:29.771Z,8.27
2022-08-12T15:05:00.847Z,6.72
2022-08-12T15:07:50.330Z,4.65
2022-08-12T15:10:32.373Z,3.45
2022-08-12T15:13:07.213Z,8.35
2022-08-12T15:15:43.764Z,8.82
2022-08-12T15:18:21.600Z,8.82
2022-08-12T15:20:52.722Z,7.38
2022-08-12T15:23:24.465Z,7.32
2022-08-12T15:25:59.728Z,7.35
2022-08-12T15:28:35.657Z,10.88
2022-08-12T15:31:21.643Z,8.25
2022-08-12T15:33:57.446Z,7.68
2022-08-12T15:36:54.390Z,9.93
2022-08-12T15:39:16.550Z,4.18
2022-08-12T15:41:50.903Z,10.05
2022-08-12T15:44:42.391Z,6.20
2022-08-12T15:47:11.428Z,5.63
2022-08-12T15:49:54.281Z,5.93
2022-08-12T15:52:32.459Z,8.23
2022-08-12T15:55:18.041Z,8.30
2022-08-12T15:57:53.820Z,8.45
2022-08-12T16:00:33.415Z,7.88
2022-08-12T16:03:08.709Z,10.10
2022-08-12T16:06:16.891Z,8.55
2022-08-12T16:08:36.543Z,6.70
2022-08-12T16:11:14.572Z,14.07
2022-08-12T16:13:44.067Z,10.63
2022-08-12T16:16:23.542Z,8.93
2022-08-12T16:18:59.570Z,6.95
2022-08-12T16:21:51.531Z,5.95
2022-08-12T16:24:27.606Z,7.68
2022-08-12T16:26:55.607Z,8.05
2022-08-12T16:29:52.144Z,8.15
2022-08-12T16:32:24.405Z,9.85
2022-08-12T16:35:04.521Z,6.85
2022-08-12T16:38:24.207Z,8.40
2022-08-12T16:40:25.443Z,8.55
2022-08-12T16:43:02.158Z,8.57
2022-08-12T16:46:07.837Z,6.57
2022-08-12T16:48:34.382Z,10.68
2022-08-12T16:51:09.832Z,9.13
2022-08-12T16:54:03.435Z,10.57
2022-08-12T16:56:39.842Z,10.20
2022-08-12T16:59:54.069Z,9.73
2022-08-12T17:02:38.912Z,10.15
2022-08-12T17:05:35.095Z,8.02
2022-08-12T17:08:19.502Z,6.65
2022-08-12T17:11:09.603Z,9.27
2022-08-12T17:13:53.570Z,8.38
2022-08-12T17:16:30.377Z,7.63
2022-08-12T17:20:16.900Z,10.93
2022-08-12T17:22:36.827Z,7.18
2022-08-12T17:25:14.886Z,10.65
2022-08-12T17:27:47.012Z,10.10
2022-08-12T17:30:27.625Z,8.20
2022-08-12T17:32:59.012Z,11.23
2022-08-12T17:35:37.474Z,9.60
2022-08-12T17:38:13.952Z,10.73
2022-08-12T17:40:46.225Z,6.88
2022-08-12T17:43:55.899Z,9.77
2022-08-12T17:46:23.565Z,7.07
2022-08-12T17:49:00.011Z,8.55
2022-08-12T17:51:31.320Z,7.10
2022-08-12T17:54:12.176Z,6.95
2022-08-12T17:56:43.293Z,12.02
2022-08-12T17:59:12.390Z,11.68
2022-08-12T18:01:47.270Z,5.07
2022-08-12T18:04:22.430Z,9.05
2022-08-12T18:07:03.348Z,12.50
2022-08-12T18:09:37.234Z,12.88
2022-08-12T18:12:24.832Z,7.22
2022-08-12T18:15:09.613Z,11.67
2022-08-12T18:17:39.596Z,18.83
2022-08-12T18:20:08.459Z,11.23
2022-08-12T18:22:45.294Z,12.88
2022-08-12T18:26:16.080Z,12.82
2022-08-12T18:28:45.136Z,8.98
2022-08-12T18:31:18.360Z,11.65
2022-08-12T18:33:46.906Z,9.10
2022-08-12T18:36:22.437Z,12.93
2022-08-12T18:39:00.070Z,10.50
2022-08-12T18:41:33.690Z,10.50
2022-08-12T18:44:12.349Z,10.02
2022-08-12T18:46:57.919Z,9.32
2022-08-12T18:49:39.455Z,12.60
2022-08-12T18:52:11.713Z,18.52
2022-08-12T18:54:49.515Z,7.97
2022-08-12T18:57:45.857Z,10.45
2022-08-12T19:00:22.881Z,15.65
2022-08-12T19:02:53.562Z,18.73
2022-08-12T19:05:52.684Z,20.67
2022-08-12T19:08:13.951Z,9.00
2022-08-12T19:10:50.672Z,11.98
2022-08-12T19:13:42.914Z,22.02
2022-08-12T19:16:12.582Z,15.43
2022-08-12T19:18:45.644Z,21.23
2022-08-12T19:21:16.909Z,23.33
2022-08-12T19:24:13.087Z,21.75
2022-08-12T19:26:42.502Z,19.40
2022-08-12T19:31:57.337Z,16.17
2022-08-12T19:34:56.347Z,14.25
2022-08-12T19:40:09.178Z,22.25
2022-08-12T19:43:00.696Z,15.27
2022-08-12T19:45:43.678Z,10.98
2022-08-12T19:48:19.283Z,17.73
2022-08-12T19:53:24.274Z,15.35
2022-08-12T19:55:53.820Z,14.63
2022-08-12T19:58:23.741Z,14.60
2022-08-12T20:00:53.044Z,8.32
2022-08-12T20:06:16.136Z,7.32
2022-08-12T20:08:55.851Z,9.90
2022-08-12T20:12:12.969Z,13.98
2022-08-12T20:14:19.527Z,11.23
2022-08-12T20:16:56.523Z,8.00
2022-08-12T20:20:05.481Z,11.40
2022-08-12T20:22:33.582Z,10.32
2022-08-12T20:25:08.603Z,11.70
2022-08-12T20:28:03.209Z,9.63
2022-08-12T20:30:52.723Z,8.60
2022-08-12T20:33:23.318Z,12.25
2022-08-12T20:36:40.136Z,8.45
2022-08-12T20:38:55.553Z,15.63
2022-08-12T20:41:25.212Z,13.70
2022-08-12T20:43:55.123Z,9.73
2022-08-12T20:46:31.580Z,16.08
2022-08-12T20:49:01.065Z,14.35
2022-08-12T20:51:55.037Z,16.25
2022-08-12T20:54:32.541Z,10.25
2022-08-12T20:57:07.479Z,20.45
2022-08-12T20:59:47.687Z,13.00
2022-08-12T21:02:24.504Z,11.18
2022-08-12T21:05:20.258Z,17.48
2022-08-12T21:07:51.549Z,21.23
2022-08-12T21:10:21.316Z,12.40
2022-08-12T21:12:54.806Z,16.30
2022-08-12T21:15:30.314Z,17.08
2022-08-12T21:18:27.089Z,15.98
2022-08-12T21:20:58.965Z,14.60
2022-08-12T21:23:30.948Z,12.00
2022-08-12T21:26:06.147Z,12.45
2022-08-12T21:28:58.051Z,13.27
2022-08-12T21:32:39.144Z,13.60
2022-08-12T21:34:19.908Z,17.20
2022-08-12T21:36:50.361Z,16.95
2022-08-12T21:39:35.027Z,14.32
2022-08-12T21:42:06.550Z,14.63
2022-08-12T21:45:47.775Z,11.98
2022-08-12T21:47:35.112Z,14.38
2022-08-12T21:50:07.335Z,15.55
2022-08-12T21:52:37.090Z,13.13
2022-08-12T21:55:08.310Z,13.10
2022-08-12T21:57:53.389Z,12.90
2022-08-12T22:00:31.969Z,24.02
2022-08-12T22:03:20.332Z,16.38
2022-08-12T22:06:30.965Z,12.55
2022-08-12T22:09:15.371Z,15.80
2022-08-12T22:11:59.212Z,13.68
2022-08-12T22:14:30.640Z,17.00
2022-08-12T22:17:01.268Z,16.90
2022-08-12T22:19:33.753Z,18.88
2022-08-12T22:22:05.357Z,26.63
2022-08-12T22:24:38.596Z,16.23
2022-08-12T22:27:31.624Z,15.15
2022-08-12T22:30:16.754Z,16.35
2022-08-12T22:32:49.972Z,21.23
2022-08-12T22:35:55.936Z,17.38
2022-08-12T22:38:29.854Z,19.52
2022-08-12T22:41:00.885Z,20.48
2022-08-12T22:44:00.314Z,19.05
2022-08-12T22:46:33.098Z,20.08
2022-08-12T22:49:01.219Z,17.13
2022-08-12T22:51:42.945Z,16.45
2022-08-12T22:54:35.787Z,21.25
2022-08-12T22:57:11.957Z,21.48
2022-08-12T22:59:55.844Z,25.90
2022-08-12T23:02:34.976Z,19.98
2022-08-12T23:05:03.872Z,18.63
2022-08-12T23:07:57.987Z,17.05
2022-08-12T23:10:27.125Z,21.50
2022-08-12T23:13:15.279Z,19.13
2022-08-12T23:15:47.818Z,14.20
2022-08-12T23:18:22.478Z,22.17
2022-08-12T23:21:00.999Z,23.77
2022-08-12T23:23:28.962Z,17.83
2022-08-12T23:26:05.558Z,17.67
2022-08-12T23:29:25.952Z,17.35
2022-08-12T23:32:02.134Z,18.63
2022-08-12T23:34:41.729Z,17.40
2022-08-12T23:37:16.698Z,20.02
2022-08-12T23:40:06.830Z,18.58
2022-08-12T23:42:32.821Z,20.73
2022-08-12T23:45:08.976Z,16.83
2022-08-12T23:47:51.086Z,16.83
2022-08-12T23:50:26.346Z,19.83
2022-08-12T23:53:22.454Z,21.48
2022-08-12T23:55:50.761Z,16.63
2022-08-12T23:58:23.369Z,21.45
